createdAt,value
2018-09-19T00:00:24.938Z,19.71
2018-09-19T00:01:24.930Z,19.76
2018-09-19T00:02:24.927Z,19.67
2018-09-19T00:03:24.928Z,19.68
2018-09-19T00:04:24.925Z,19.65
2018-09-19T00:05:24.925Z,19.65
2018-09-19T00:06:24.929Z,19.71
2018-09-19T00:07:24.918Z,19.53
2018-09-19T00:08:24.961Z,19.58
2018-09-19T00:09:24.921Z,19.53
2018-09-19T00:10:24.918Z,19.50
2018-09-19T00:11:24.920Z,19.43
2018-09-19T00:12:24.918Z,19.42
2018-09-19T00:13:24.909Z,19.32
2018-09-19T00:14:24.912Z,19.31
2018-09-19T00:15:24.905Z,19.30
2018-09-19T00:16:24.902Z,19.31
2018-09-19T00:17:24.905Z,19.23
2018-09-19T00:18:24.906Z,19.17
2018-09-19T00:19:24.900Z,19.21
2018-09-19T00:20:24.901Z,19.24
2018-09-19T00:21:24.893Z,19.21
2018-09-19T00:22:24.891Z,19.21
2018-09-19T00:23:24.897Z,19.24
2018-09-19T00:24:24.891Z,19.15
2018-09-19T00:25:24.885Z,19.20
2018-09-19T00:26:24.883Z,19.25
2018-09-19T00:27:24.882Z,19.24
2018-09-19T00:28:24.881Z,19.23
2018-09-19T00:29:24.883Z,19.28
2018-09-19T00:30:24.881Z,19.28
2018-09-19T00:31:24.878Z,19.31
2018-09-19T00:32:24.878Z,19.32
2018-09-19T00:33:24.868Z,19.31
2018-09-19T00:34:24.869Z,19.25
2018-09-19T00:35:24.868Z,19.21
2018-09-19T00:36:24.864Z,19.25
2018-09-19T00:37:24.866Z,19.24
2018-09-19T00:38:24.871Z,19.21
2018-09-19T00:39:24.856Z,19.15
2018-09-19T00:40:24.856Z,19.13
2018-09-19T00:41:24.855Z,19.06
2018-09-19T00:42:24.854Z,19.02
2018-09-19T00:43:24.856Z,19.15
2018-09-19T00:44:24.850Z,19.01
2018-09-19T00:45:24.844Z,19.01
2018-09-19T00:46:24.858Z,19.01
2018-09-19T00:47:24.840Z,18.93
2018-09-19T00:48:24.839Z,18.97
2018-09-19T00:49:24.839Z,18.90
2018-09-19T00:50:24.837Z,18.93
2018-09-19T00:51:24.835Z,18.87
2018-09-19T00:52:24.832Z,18.90
2018-09-19T00:53:24.824Z,18.84
2018-09-19T00:54:24.822Z,18.79
2018-09-19T00:55:24.826Z,18.75
2018-09-19T00:56:24.873Z,18.78
2018-09-19T00:57:24.815Z,18.72
2018-09-19T00:58:24.818Z,18.71
2018-09-19T00:59:24.815Z,18.65
2018-09-19T01:00:24.811Z,18.60
2018-09-19T01:01:24.814Z,18.68
2018-09-19T01:02:24.812Z,18.69
2018-09-19T01:03:24.808Z,18.66
2018-09-19T01:04:24.806Z,18.68
2018-09-19T01:05:24.799Z,18.65
2018-09-19T01:06:24.797Z,18.59
2018-09-19T01:07:24.794Z,18.60
2018-09-19T01:08:24.790Z,18.47
2018-09-19T01:09:24.791Z,18.51
2018-09-19T01:10:24.791Z,18.53
2018-09-19T01:11:24.786Z,18.57
2018-09-19T01:12:24.781Z,18.53
2018-09-19T01:13:24.783Z,18.51
2018-09-19T01:14:24.780Z,18.49
2018-09-19T01:15:24.788Z,18.54
2018-09-19T01:16:24.782Z,18.54
2018-09-19T01:17:24.854Z,18.47
2018-09-19T01:18:24.767Z,18.39
2018-09-19T01:19:24.764Z,18.46
2018-09-19T01:20:24.763Z,18.36
2018-09-19T01:21:24.762Z,18.38
2018-09-19T01:22:24.763Z,18.31
2018-09-19T01:23:24.759Z,18.29
2018-09-19T01:24:24.757Z,18.32
2018-09-19T01:25:24.757Z,18.31
2018-09-19T01:26:24.746Z,18.29
2018-09-19T01:27:24.749Z,18.25
2018-09-19T01:28:24.747Z,18.41
2018-09-19T01:29:24.739Z,18.26
2018-09-19T01:30:24.737Z,18.35
2018-09-19T01:31:24.736Z,18.32
2018-09-19T01:32:24.732Z,18.31
2018-09-19T01:33:24.736Z,18.26
2018-09-19T01:34:24.733Z,18.26
2018-09-19T01:35:24.729Z,18.23
2018-09-19T01:36:24.729Z,18.20
2018-09-19T01:37:24.719Z,18.20
2018-09-19T01:38:24.718Z,18.19
2018-09-19T01:39:24.715Z,18.23
2018-09-19T01:40:24.711Z,18.21
2018-09-19T01:41:24.712Z,18.23
2018-09-19T01:42:24.711Z,18.25
2018-09-19T01:43:24.705Z,18.20
2018-09-19T01:44:24.701Z,18.13
2018-09-19T01:45:24.703Z,18.23
2018-09-19T01:46:24.700Z,18.16
2018-09-19T01:47:24.699Z,18.20
2018-09-19T01:48:24.698Z,18.19
2018-09-19T01:49:24.688Z,18.09
2018-09-19T01:50:24.685Z,18.04
2018-09-19T01:51:24.682Z,18.09
2018-09-19T01:52:24.682Z,18.11
2018-09-19T01:53:24.682Z,17.99
2018-09-19T01:54:24.680Z,18.04
2018-09-19T01:55:24.680Z,17.99
2018-09-19T01:56:24.675Z,17.99
2018-09-19T01:57:24.666Z,18.10
2018-09-19T01:58:24.666Z,18.09
2018-09-19T01:59:24.666Z,18.07
2018-09-19T02:00:24.666Z,18.09
2018-09-19T02:01:24.655Z,18.02
2018-09-19T02:02:24.653Z,17.96
2018-09-19T02:03:24.650Z,18.07
2018-09-19T02:04:24.652Z,17.98
2018-09-19T02:05:24.649Z,17.89
2018-09-19T02:06:24.647Z,17.98
2018-09-19T02:07:24.646Z,17.96
2018-09-19T02:08:24.642Z,17.92
2018-09-19T02:09:24.635Z,17.89
2018-09-19T02:10:24.632Z,17.81
2018-09-19T02:11:24.628Z,17.77
2018-09-19T02:12:24.627Z,17.80
2018-09-19T02:13:24.631Z,17.83
2018-09-19T02:14:24.626Z,17.86
2018-09-19T02:15:24.637Z,17.83
2018-09-19T02:16:24.619Z,17.79
2018-09-19T02:17:24.616Z,17.79
2018-09-19T02:18:24.613Z,17.84
2018-09-19T02:19:24.614Z,17.79
2018-09-19T02:20:24.616Z,17.71
2018-09-19T02:21:24.604Z,17.73
2018-09-19T02:22:24.597Z,17.62
2018-09-19T02:23:24.594Z,17.63
2018-09-19T02:24:24.593Z,17.49
2018-09-19T02:25:24.601Z,17.53
2018-09-19T02:26:24.590Z,17.58
2018-09-19T02:27:24.589Z,17.51
2018-09-19T02:28:24.596Z,17.49
2018-09-19T02:29:24.578Z,17.51
2018-09-19T02:30:24.579Z,17.51
2018-09-19T02:31:24.581Z,17.47
2018-09-19T02:32:24.575Z,17.49
2018-09-19T02:33:24.580Z,17.51
2018-09-19T02:34:24.569Z,17.49
2018-09-19T02:35:24.567Z,17.55
2018-09-19T02:36:24.564Z,17.51
2018-09-19T02:37:24.559Z,17.51
2018-09-19T02:38:24.555Z,17.51
2018-09-19T02:39:24.551Z,17.54
2018-09-19T02:40:24.552Z,17.42
2018-09-19T02:41:24.541Z,17.43
2018-09-19T02:42:24.538Z,17.51
2018-09-19T02:43:24.543Z,17.38
2018-09-19T02:44:24.534Z,17.49
2018-09-19T02:45:24.544Z,17.46
2018-09-19T02:46:24.532Z,17.49
2018-09-19T02:47:24.524Z,17.46
2018-09-19T02:48:24.526Z,17.58
2018-09-19T02:49:24.531Z,17.58
2018-09-19T02:50:24.571Z,17.63
2018-09-19T02:51:24.515Z,17.68
2018-09-19T02:52:24.513Z,17.63
2018-09-19T02:53:24.508Z,17.60
2018-09-19T02:54:24.501Z,17.60
2018-09-19T02:55:24.500Z,17.57
2018-09-19T02:56:24.497Z,17.54
2018-09-19T02:57:24.497Z,17.53
2018-09-19T02:58:24.496Z,17.53
2018-09-19T02:59:24.494Z,17.51
2018-09-19T03:00:24.489Z,17.51
2018-09-19T03:01:24.481Z,17.49
2018-09-19T03:02:24.477Z,17.46
2018-09-19T03:03:24.480Z,17.47
2018-09-19T03:04:24.491Z,17.46
2018-09-19T03:05:24.476Z,17.28
2018-09-19T03:06:24.468Z,17.39
2018-09-19T03:07:24.463Z,17.33
2018-09-19T03:08:24.462Z,17.27
2018-09-19T03:09:24.460Z,17.24
2018-09-19T03:10:24.463Z,17.24
2018-09-19T03:11:24.460Z,17.24
2018-09-19T03:12:24.461Z,17.28
2018-09-19T03:13:24.442Z,17.25
2018-09-19T03:14:24.456Z,17.27
2018-09-19T03:15:24.444Z,17.28
2018-09-19T03:16:24.439Z,17.27
2018-09-19T03:17:24.573Z,17.39
2018-09-19T03:18:24.431Z,17.39
2018-09-19T03:19:24.428Z,17.35
2018-09-19T03:20:24.421Z,17.39
2018-09-19T03:21:24.422Z,17.42
2018-09-19T03:22:24.418Z,17.42
2018-09-19T03:23:24.417Z,17.35
2018-09-19T03:24:24.417Z,17.36
2018-09-19T03:25:24.404Z,17.42
2018-09-19T03:26:24.401Z,17.40
2018-09-19T03:27:24.398Z,17.43
2018-09-19T03:28:24.395Z,17.36
2018-09-19T03:29:24.404Z,17.40
2018-09-19T03:30:24.396Z,17.40
2018-09-19T03:31:24.389Z,17.36
2018-09-19T03:32:24.385Z,17.40
2018-09-19T03:33:24.385Z,17.36
2018-09-19T03:34:24.378Z,17.38
2018-09-19T03:35:24.415Z,17.36
2018-09-19T03:36:24.374Z,17.36
2018-09-19T03:37:24.363Z,17.38
2018-09-19T03:38:24.363Z,17.46
2018-09-19T03:39:24.363Z,17.40
2018-09-19T03:40:24.363Z,17.39
2018-09-19T03:41:24.359Z,17.43
2018-09-19T03:42:24.353Z,17.39
2018-09-19T03:43:24.351Z,17.40
2018-09-19T03:44:24.349Z,17.32
2018-09-19T03:45:24.338Z,17.32
2018-09-19T03:46:24.336Z,17.42
2018-09-19T03:47:24.331Z,17.27
2018-09-19T03:48:24.327Z,17.30
2018-09-19T03:49:24.328Z,17.25
2018-09-19T03:50:24.328Z,17.24
2018-09-19T03:51:24.323Z,17.27
2018-09-19T03:52:24.313Z,17.24
2018-09-19T03:53:24.315Z,17.22
2018-09-19T03:54:24.312Z,17.25
2018-09-19T03:55:24.319Z,17.35
2018-09-19T03:56:24.309Z,17.25
2018-09-19T03:57:24.298Z,17.24
2018-09-19T03:58:24.325Z,17.25
2018-09-19T03:59:24.296Z,17.30
2018-09-19T04:00:24.297Z,17.25
2018-09-19T04:01:24.292Z,17.32
2018-09-19T04:02:24.286Z,17.24
2018-09-19T04:03:24.284Z,17.35
2018-09-19T04:04:24.284Z,17.22
2018-09-19T04:05:24.271Z,17.25
2018-09-19T04:06:24.270Z,17.22
2018-09-19T04:07:24.270Z,17.28
2018-09-19T04:08:24.271Z,17.33
2018-09-19T04:09:24.267Z,17.35
2018-09-19T04:10:24.256Z,17.33
2018-09-19T04:11:24.253Z,17.40
2018-09-19T04:12:24.249Z,17.38
2018-09-19T04:13:24.249Z,17.38
2018-09-19T04:14:24.248Z,17.43
2018-09-19T04:15:24.244Z,17.36
2018-09-19T04:16:24.242Z,17.40
2018-09-19T04:17:24.233Z,17.40
2018-09-19T04:18:24.233Z,17.42
2018-09-19T04:19:24.229Z,17.43
2018-09-19T04:20:24.223Z,17.36
2018-09-19T04:21:24.228Z,17.36
2018-09-19T04:22:24.221Z,17.42
2018-09-19T04:23:24.216Z,17.36
2018-09-19T04:24:24.211Z,17.35
2018-09-19T04:25:24.210Z,17.36
2018-09-19T04:26:24.210Z,17.39
2018-09-19T04:27:24.208Z,17.39
2018-09-19T04:28:24.203Z,17.33
2018-09-19T04:29:24.191Z,17.30
2018-09-19T04:30:24.192Z,17.39
2018-09-19T04:31:24.187Z,17.36
2018-09-19T04:32:24.252Z,17.39
2018-09-19T04:33:24.190Z,17.36
2018-09-19T04:34:24.180Z,17.32
2018-09-19T04:35:24.179Z,17.32
2018-09-19T04:36:24.175Z,17.39
2018-09-19T04:37:24.169Z,17.32
2018-09-19T04:38:24.162Z,17.35
2018-09-19T04:39:24.164Z,17.32
2018-09-19T04:40:24.161Z,17.32
2018-09-19T04:41:24.153Z,17.36
2018-09-19T04:42:24.153Z,17.39
2018-09-19T04:43:24.146Z,17.39
2018-09-19T04:44:24.155Z,17.43
2018-09-19T04:45:24.141Z,17.38
2018-09-19T04:46:24.143Z,17.39
2018-09-19T04:47:24.144Z,17.40
2018-09-19T04:48:24.132Z,17.40
2018-09-19T04:49:24.124Z,17.42
2018-09-19T04:50:24.120Z,17.43
2018-09-19T04:51:24.135Z,17.43
2018-09-19T04:52:24.115Z,17.40
2018-09-19T04:53:24.121Z,17.38
2018-09-19T04:54:24.114Z,17.46
2018-09-19T04:55:24.103Z,17.39
2018-09-19T04:56:24.105Z,17.54
2018-09-19T04:57:24.113Z,17.47
2018-09-19T04:58:24.099Z,17.47
2018-09-19T04:59:24.094Z,17.51
2018-09-19T05:00:24.092Z,17.51
2018-09-19T05:01:24.084Z,17.54
2018-09-19T05:02:24.080Z,17.47
2018-09-19T05:03:24.077Z,17.49
2018-09-19T05:04:24.077Z,17.54
2018-09-19T05:05:24.078Z,17.51
2018-09-19T05:06:24.071Z,17.53
2018-09-19T05:07:24.153Z,17.62
2018-09-19T05:08:24.070Z,17.57
2018-09-19T05:09:24.056Z,17.60
2018-09-19T05:10:24.055Z,17.58
2018-09-19T05:11:24.124Z,17.62
2018-09-19T05:12:24.051Z,17.63
2018-09-19T05:13:24.042Z,17.74
2018-09-19T05:14:24.041Z,17.77
2018-09-19T05:15:24.038Z,17.76
2018-09-19T05:16:24.035Z,17.76
2018-09-19T05:17:24.033Z,17.80
2018-09-19T05:18:24.030Z,17.79
2018-09-19T05:19:24.032Z,17.83
2018-09-19T05:20:24.028Z,17.79
2018-09-19T05:21:24.015Z,17.76
2018-09-19T05:22:24.012Z,17.79
2018-09-19T05:23:24.016Z,17.87
2018-09-19T05:24:24.007Z,17.79
2018-09-19T05:25:24.006Z,17.86
2018-09-19T05:26:24.004Z,17.86
2018-09-19T05:27:23.994Z,17.89
2018-09-19T05:28:23.995Z,17.95
2018-09-19T05:29:23.993Z,17.95
2018-09-19T05:30:23.992Z,17.87
2018-09-19T05:31:24.020Z,17.99
2018-09-19T05:32:23.989Z,17.96
2018-09-19T05:33:23.978Z,18.10
2018-09-19T05:34:23.972Z,18.14
2018-09-19T05:35:23.975Z,18.19
2018-09-19T05:36:23.970Z,18.20
2018-09-19T05:37:23.969Z,18.25
2018-09-19T05:38:23.965Z,18.41
2018-09-19T05:39:23.961Z,18.38
2018-09-19T05:40:23.958Z,18.32
2018-09-19T05:41:23.951Z,18.46
2018-09-19T05:42:23.947Z,18.42
2018-09-19T05:43:23.950Z,18.49
2018-09-19T05:44:23.947Z,18.59
2018-09-19T05:45:23.941Z,18.66
2018-09-19T05:46:23.982Z,18.69
2018-09-19T05:47:23.934Z,18.78
2018-09-19T05:48:23.936Z,18.90
2018-09-19T05:49:23.932Z,18.99
2018-09-19T05:50:23.930Z,19.01
2018-09-19T05:51:23.940Z,19.17
2018-09-19T05:52:23.925Z,19.27
2018-09-19T05:53:23.916Z,19.42
2018-09-19T05:54:23.954Z,19.43
2018-09-19T05:55:23.938Z,19.46
2018-09-19T05:56:23.910Z,19.46
2018-09-19T05:57:23.910Z,19.32
2018-09-19T05:58:23.911Z,19.39
2018-09-19T05:59:23.902Z,19.40
2018-09-19T06:00:23.899Z,19.58
2018-09-19T06:01:23.904Z,19.79
2018-09-19T06:02:23.905Z,19.82
2018-09-19T06:03:23.901Z,19.78
2018-09-19T06:04:23.896Z,19.78
2018-09-19T06:05:23.897Z,19.89
2018-09-19T06:06:23.886Z,20.12
2018-09-19T06:07:23.923Z,20.30
2018-09-19T06:08:23.882Z,20.71
2018-09-19T06:09:23.883Z,20.90
2018-09-19T06:10:23.884Z,21.12
2018-09-19T06:11:23.881Z,21.36
2018-09-19T06:12:23.879Z,21.48
2018-09-19T06:13:23.873Z,21.68
2018-09-19T06:14:23.870Z,21.67
2018-09-19T06:15:23.875Z,22.20
2018-09-19T06:16:23.874Z,22.26
2018-09-19T06:17:23.866Z,22.20
2018-09-19T06:18:23.867Z,22.60
2018-09-19T06:19:23.865Z,22.86
2018-09-19T06:20:23.864Z,23.09
2018-09-19T06:21:23.868Z,23.45
2018-09-19T06:22:23.869Z,23.84
2018-09-19T06:23:23.867Z,24.00
2018-09-19T06:24:23.870Z,23.64
2018-09-19T06:25:23.866Z,23.62
2018-09-19T06:26:23.864Z,23.42
2018-09-19T06:27:23.866Z,23.90
2018-09-19T06:28:23.870Z,23.69
2018-09-19T06:29:23.872Z,23.54
2018-09-19T06:30:23.872Z,23.81
2018-09-19T06:31:23.872Z,23.81
2018-09-19T06:32:23.870Z,23.74
2018-09-19T06:33:23.940Z,23.99
2018-09-19T06:34:23.878Z,24.44
2018-09-19T06:35:23.879Z,24.49
2018-09-19T06:36:23.881Z,24.64
2018-09-19T06:37:23.878Z,24.74
2018-09-19T06:38:23.896Z,24.82
2018-09-19T06:39:23.882Z,24.87
2018-09-19T06:40:23.913Z,24.93
2018-09-19T06:41:23.891Z,25.46
2018-09-19T06:42:23.894Z,25.78
2018-09-19T06:43:23.900Z,25.72
2018-09-19T06:44:23.900Z,25.79
2018-09-19T06:45:23.899Z,26.16
2018-09-19T06:46:23.901Z,26.20
2018-09-19T06:47:23.912Z,25.63
2018-09-19T06:48:23.915Z,26.00
2018-09-19T06:49:23.915Z,26.46
2018-09-19T06:50:23.916Z,27.15
2018-09-19T06:51:23.920Z,26.46
2018-09-19T06:52:23.986Z,26.59
2018-09-19T06:53:23.932Z,26.54
2018-09-19T06:54:23.936Z,26.84
2018-09-19T06:55:23.940Z,25.81
2018-09-19T06:56:23.944Z,25.63
2018-09-19T06:57:23.944Z,25.59
2018-09-19T06:58:23.950Z,26.47
2018-09-19T06:59:23.953Z,26.93
2018-09-19T07:00:23.964Z,27.46
2018-09-19T07:01:23.969Z,27.55
2018-09-19T07:02:23.971Z,27.96
2018-09-19T07:03:23.972Z,28.48
2018-09-19T07:04:23.977Z,28.79
2018-09-19T07:05:23.986Z,28.57
2018-09-19T07:06:23.991Z,28.25
2018-09-19T07:07:23.996Z,27.80
2018-09-19T07:08:24.003Z,28.06
2018-09-19T07:09:24.002Z,28.82
2018-09-19T07:10:24.058Z,28.46
2018-09-19T07:11:24.027Z,28.77
2018-09-19T07:12:24.022Z,28.77
2018-09-19T07:13:24.030Z,27.53
2018-09-19T07:14:24.049Z,28.01
2018-09-19T07:15:24.043Z,27.66
2018-09-19T07:16:24.048Z,28.08
2018-09-19T07:17:24.049Z,27.96
2018-09-19T07:18:24.061Z,28.23
2018-09-19T07:19:24.073Z,28.33
2018-09-19T07:20:24.072Z,27.66
2018-09-19T07:21:24.075Z,27.09
2018-09-19T07:22:24.084Z,26.94
2018-09-19T07:23:24.089Z,27.49
2018-09-19T07:24:24.096Z,27.71
2018-09-19T07:25:24.108Z,27.58
2018-09-19T07:26:24.114Z,27.50
2018-09-19T07:27:24.121Z,27.48
2018-09-19T07:28:24.128Z,27.21
2018-09-19T07:29:24.131Z,27.16
2018-09-19T07:30:24.138Z,27.65
2018-09-19T07:31:24.144Z,28.18
2018-09-19T07:32:24.152Z,28.98
2018-09-19T07:33:24.164Z,28.21
2018-09-19T07:34:24.232Z,28.48
2018-09-19T07:35:24.173Z,28.76
2018-09-19T07:36:24.180Z,28.36
2018-09-19T07:37:24.197Z,28.62
2018-09-19T07:38:24.249Z,28.79
2018-09-19T07:39:24.207Z,29.57
2018-09-19T07:40:24.295Z,29.48
2018-09-19T07:41:24.218Z,29.71
2018-09-19T07:42:24.225Z,30.34
2018-09-19T07:43:24.233Z,30.45
2018-09-19T07:44:24.281Z,30.34
2018-09-19T07:45:24.256Z,29.58
2018-09-19T07:46:24.266Z,28.82
2018-09-19T07:47:24.273Z,28.52
2018-09-19T07:48:24.282Z,29.17
2018-09-19T07:49:24.284Z,29.58
2018-09-19T07:50:24.294Z,28.55
2018-09-19T07:51:24.305Z,27.95
2018-09-19T07:52:24.313Z,28.32
2018-09-19T07:53:24.317Z,27.91
2018-09-19T07:54:24.336Z,28.77
2018-09-19T07:55:24.424Z,29.00
2018-09-19T07:56:24.345Z,29.00
2018-09-19T07:57:24.358Z,29.49
2018-09-19T07:58:24.366Z,29.48
2018-09-19T07:59:24.381Z,30.25
2018-09-19T08:00:24.392Z,29.92
2018-09-19T08:01:24.389Z,30.06
2018-09-19T08:02:24.399Z,29.45
2018-09-19T08:03:24.405Z,29.69
2018-09-19T08:04:24.414Z,29.47
2018-09-19T08:05:24.426Z,29.79
2018-09-19T08:06:24.437Z,29.58
2018-09-19T08:07:24.441Z,30.04
2018-09-19T08:08:24.452Z,29.95
2018-09-19T08:09:24.464Z,30.54
2018-09-19T08:10:24.471Z,30.97
2018-09-19T08:11:24.482Z,31.16
2018-09-19T08:12:24.492Z,31.38
2018-09-19T08:13:24.498Z,31.27
2018-09-19T08:14:24.504Z,31.64
2018-09-19T08:15:24.514Z,31.32
2018-09-19T08:16:24.525Z,32.21
2018-09-19T08:17:24.538Z,31.65
2018-09-19T08:18:24.548Z,31.79
2018-09-19T08:19:24.561Z,31.37
2018-09-19T08:20:24.573Z,31.65
2018-09-19T08:21:24.579Z,31.04
2018-09-19T08:22:24.609Z,30.88
2018-09-19T08:23:24.599Z,31.98
2018-09-19T08:24:24.609Z,32.56
2018-09-19T08:25:24.621Z,31.68
2018-09-19T08:26:24.631Z,30.59
2018-09-19T08:27:24.645Z,30.04
2018-09-19T08:28:24.648Z,28.76
2018-09-19T08:29:24.660Z,28.43
2018-09-19T08:30:24.672Z,28.21
2018-09-19T08:31:24.682Z,27.24
2018-09-19T08:32:24.693Z,26.81
2018-09-19T08:33:24.696Z,26.75
2018-09-19T08:34:24.705Z,26.53
2018-09-19T08:35:24.723Z,26.71
2018-09-19T08:36:24.723Z,27.52
2018-09-19T08:37:24.736Z,28.13
2018-09-19T08:38:24.744Z,28.54
2018-09-19T08:39:24.748Z,29.45
2018-09-19T08:40:24.756Z,30.21
2018-09-19T08:41:24.769Z,30.90
2018-09-19T08:42:24.776Z,30.57
2018-09-19T08:43:24.784Z,31.67
2018-09-19T08:44:24.793Z,31.49
2018-09-19T08:45:24.795Z,31.49
2018-09-19T08:46:24.805Z,30.96
2018-09-19T08:47:24.813Z,31.97
2018-09-19T08:48:24.826Z,31.40
2018-09-19T08:49:24.838Z,31.04
2018-09-19T08:50:24.867Z,30.94
2018-09-19T08:51:24.856Z,31.32
2018-09-19T08:52:24.869Z,31.15
2018-09-19T08:53:24.872Z,30.68
2018-09-19T08:54:24.882Z,30.37
2018-09-19T08:55:24.896Z,31.32
2018-09-19T08:56:24.910Z,30.72
2018-09-19T08:57:24.912Z,30.94
2018-09-19T08:58:24.928Z,31.68
2018-09-19T08:59:24.933Z,32.36
2018-09-19T09:00:24.946Z,32.12
2018-09-19T09:01:24.966Z,32.50
2018-09-19T09:02:24.973Z,32.71
2018-09-19T09:03:24.983Z,32.21
2018-09-19T09:04:24.993Z,32.09
2018-09-19T09:05:25.210Z,32.39
2018-09-19T09:06:25.012Z,31.75
2018-09-19T09:07:25.028Z,31.69
2018-09-19T09:08:25.040Z,30.93
2018-09-19T09:09:25.054Z,31.69
2018-09-19T09:10:25.066Z,31.60
2018-09-19T09:11:25.072Z,31.72
2018-09-19T09:12:25.119Z,31.79
2018-09-19T09:13:25.100Z,31.85
2018-09-19T09:14:25.112Z,32.03
2018-09-19T09:15:25.124Z,32.96
2018-09-19T09:16:25.136Z,33.05
2018-09-19T09:17:25.143Z,33.34
2018-09-19T09:18:25.157Z,32.95
2018-09-19T09:19:25.168Z,32.03
2018-09-19T09:20:25.186Z,32.58
2018-09-19T09:21:25.199Z,32.14
2018-09-19T09:22:25.211Z,32.76
2018-09-19T09:23:25.225Z,32.63
2018-09-19T09:24:25.237Z,33.29
2018-09-19T09:25:25.249Z,33.62
2018-09-19T09:26:25.259Z,33.50
2018-09-19T09:27:25.327Z,33.82
2018-09-19T09:28:25.289Z,34.28
2018-09-19T09:29:25.297Z,34.93
2018-09-19T09:30:25.311Z,34.86
2018-09-19T09:31:25.322Z,34.72
2018-09-19T09:32:25.338Z,34.30
2018-09-19T09:33:25.357Z,34.52
2018-09-19T09:34:25.416Z,35.34
2018-09-19T09:35:25.383Z,35.64
2018-09-19T09:36:25.395Z,35.52
2018-09-19T09:37:25.403Z,35.98
2018-09-19T09:38:25.427Z,36.12
2018-09-19T09:39:25.430Z,34.98
2018-09-19T09:40:25.474Z,34.12
2018-09-19T09:41:25.460Z,34.84
2018-09-19T09:42:25.475Z,35.59
2018-09-19T09:43:25.566Z,35.56
2018-09-19T09:44:25.498Z,35.27
2018-09-19T09:45:25.518Z,35.65
2018-09-19T09:46:25.530Z,35.59
2018-09-19T09:47:25.543Z,35.76
2018-09-19T09:48:25.557Z,36.00
2018-09-19T09:49:25.568Z,36.55
2018-09-19T09:50:25.639Z,35.29
2018-09-19T09:51:25.630Z,35.78
2018-09-19T09:52:25.613Z,36.25
2018-09-19T09:53:25.676Z,36.49
2018-09-19T09:54:25.643Z,36.31
2018-09-19T09:55:25.658Z,34.93
2018-09-19T09:56:25.670Z,35.06
2018-09-19T09:57:25.679Z,35.02
2018-09-19T09:58:25.692Z,34.18
2018-09-19T09:59:25.714Z,33.52
2018-09-19T10:00:25.727Z,33.97
2018-09-19T10:01:25.738Z,34.90
2018-09-19T10:02:25.750Z,34.23
2018-09-19T10:03:25.763Z,33.79
2018-09-19T10:04:25.777Z,34.01
2018-09-19T10:05:25.794Z,33.05
2018-09-19T10:06:25.864Z,31.68
2018-09-19T10:07:25.825Z,32.12
2018-09-19T10:08:25.833Z,31.82
2018-09-19T10:09:25.842Z,31.71
2018-09-19T10:10:25.859Z,31.56
2018-09-19T10:11:25.869Z,31.07
2018-09-19T10:12:25.881Z,30.68
2018-09-19T10:13:25.899Z,30.57
2018-09-19T10:14:25.910Z,30.83
2018-09-19T10:15:25.917Z,31.91
2018-09-19T10:16:25.930Z,32.53
2018-09-19T10:17:25.945Z,32.46
2018-09-19T10:18:25.965Z,32.19
2018-09-19T10:19:25.970Z,31.41
2018-09-19T10:20:25.980Z,31.42
2018-09-19T10:21:25.987Z,31.03
2018-09-19T10:22:25.999Z,32.22
2018-09-19T10:23:26.012Z,32.58
2018-09-19T10:24:26.018Z,32.25
2018-09-19T10:25:26.035Z,31.59
2018-09-19T10:26:26.046Z,31.13
2018-09-19T10:27:26.056Z,31.22
2018-09-19T10:28:26.066Z,32.49
2018-09-19T10:29:26.103Z,32.58
2018-09-19T10:30:26.080Z,33.43
2018-09-19T10:31:26.094Z,33.43
2018-09-19T10:32:26.106Z,33.49
2018-09-19T10:33:26.110Z,33.31
2018-09-19T10:34:26.119Z,33.09
2018-09-19T10:35:26.195Z,33.02
2018-09-19T10:36:26.145Z,33.02
2018-09-19T10:37:26.153Z,33.84
2018-09-19T10:38:26.163Z,34.08
2018-09-19T10:39:26.173Z,34.94
2018-09-19T10:40:26.183Z,35.65
2018-09-19T10:41:26.185Z,35.78
2018-09-19T10:42:26.196Z,35.62
2018-09-19T10:43:26.213Z,35.85
2018-09-19T10:44:26.216Z,36.55
2018-09-19T10:45:26.231Z,37.20
2018-09-19T10:46:26.240Z,37.62
2018-09-19T10:47:26.247Z,36.84
2018-09-19T10:48:26.263Z,36.27
2018-09-19T10:49:26.278Z,36.62
2018-09-19T10:50:26.283Z,36.21
2018-09-19T10:51:26.297Z,35.44
2018-09-19T10:52:26.307Z,35.87
2018-09-19T10:53:26.313Z,35.59
2018-09-19T10:54:26.325Z,35.55
2018-09-19T10:55:26.336Z,35.78
2018-09-19T10:56:26.351Z,36.18
2018-09-19T10:57:26.364Z,36.75
2018-09-19T10:58:26.375Z,37.12
2018-09-19T10:59:26.387Z,37.56
2018-09-19T11:00:26.402Z,37.85
2018-09-19T11:01:26.405Z,37.66
2018-09-19T11:02:26.419Z,37.24
2018-09-19T11:03:26.436Z,37.24
2018-09-19T11:04:26.455Z,37.84
2018-09-19T11:05:26.457Z,38.21
2018-09-19T11:06:26.468Z,37.81
2018-09-19T11:07:26.481Z,37.30
2018-09-19T11:08:26.495Z,37.16
2018-09-19T11:09:26.510Z,37.35
2018-09-19T11:10:26.528Z,37.02
2018-09-19T11:11:26.536Z,35.95
2018-09-19T11:12:26.547Z,35.49
2018-09-19T11:13:26.555Z,35.22
2018-09-19T11:14:26.567Z,35.44
2018-09-19T11:15:26.579Z,35.92
2018-09-19T11:16:26.591Z,35.99
2018-09-19T11:17:26.607Z,36.31
2018-09-19T11:18:26.619Z,36.46
2018-09-19T11:19:26.627Z,36.48
2018-09-19T11:20:26.638Z,36.30
2018-09-19T11:21:26.654Z,36.02
2018-09-19T11:22:26.665Z,35.62
2018-09-19T11:23:26.687Z,35.27
2018-09-19T11:24:26.689Z,35.31
2018-09-19T11:25:26.695Z,35.25
2018-09-19T11:26:26.757Z,34.88
2018-09-19T11:27:26.717Z,34.36
2018-09-19T11:28:26.733Z,34.12
2018-09-19T11:29:26.741Z,34.05
2018-09-19T11:30:26.753Z,34.08
2018-09-19T11:31:26.766Z,34.09
2018-09-19T11:32:26.772Z,33.90
2018-09-19T11:33:26.782Z,33.68
2018-09-19T11:34:26.785Z,33.49
2018-09-19T11:35:26.801Z,33.59
2018-09-19T11:36:26.813Z,33.09
2018-09-19T11:37:26.813Z,33.24
2018-09-19T11:38:26.822Z,33.34
2018-09-19T11:39:26.830Z,33.38
2018-09-19T11:40:26.838Z,33.55
2018-09-19T11:41:26.852Z,33.71
2018-09-19T11:42:26.859Z,33.92
2018-09-19T11:43:26.870Z,33.84
2018-09-19T11:44:26.878Z,33.82
2018-09-19T11:45:26.880Z,33.78
2018-09-19T11:46:26.887Z,33.90
2018-09-19T11:47:26.895Z,33.86
2018-09-19T11:48:26.904Z,33.86
2018-09-19T11:49:26.915Z,33.82
2018-09-19T11:50:26.923Z,33.89
2018-09-19T11:51:26.926Z,33.86
2018-09-19T11:52:26.933Z,33.59
2018-09-19T11:53:26.983Z,33.63
2018-09-19T11:54:26.953Z,33.59
2018-09-19T11:55:26.958Z,33.40
2018-09-19T11:56:26.965Z,33.29
2018-09-19T11:57:26.967Z,33.11
2018-09-19T11:58:26.977Z,33.09
2018-09-19T11:59:26.982Z,33.03
2018-09-19T12:00:26.992Z,32.90
2018-09-19T12:01:27.000Z,32.99
2018-09-19T12:02:27.008Z,33.12
2018-09-19T12:03:27.015Z,33.26
2018-09-19T12:04:27.021Z,33.17
2018-09-19T12:05:27.023Z,33.21
2018-09-19T12:06:27.030Z,33.09
2018-09-19T12:07:27.089Z,33.05
2018-09-19T12:08:27.048Z,33.11
2018-09-19T12:09:27.049Z,32.85
2018-09-19T12:10:27.055Z,32.85
2018-09-19T12:11:27.061Z,32.76
2018-09-19T12:12:27.068Z,32.69
2018-09-19T12:13:27.078Z,32.65
2018-09-19T12:14:27.084Z,32.58
2018-09-19T12:15:27.091Z,32.53
2018-09-19T12:16:27.098Z,32.51
2018-09-19T12:17:27.099Z,32.39
2018-09-19T12:18:27.104Z,32.54
2018-09-19T12:19:27.161Z,32.54
2018-09-19T12:20:27.119Z,32.50
2018-09-19T12:21:27.128Z,32.51
2018-09-19T12:22:27.134Z,32.54
2018-09-19T12:23:27.136Z,32.53
2018-09-19T12:24:27.143Z,32.51
2018-09-19T12:25:27.152Z,32.44
2018-09-19T12:26:27.182Z,32.31
2018-09-19T12:27:27.163Z,32.06
2018-09-19T12:28:27.175Z,31.94
2018-09-19T12:29:27.171Z,31.88
2018-09-19T12:30:27.177Z,31.90
2018-09-19T12:31:27.182Z,31.90
2018-09-19T12:32:27.188Z,31.84
2018-09-19T12:33:27.198Z,31.68
2018-09-19T12:34:27.204Z,31.69
2018-09-19T12:35:27.209Z,31.71
2018-09-19T12:36:27.217Z,31.60
2018-09-19T12:37:27.218Z,31.65
2018-09-19T12:38:27.222Z,31.67
2018-09-19T12:39:27.244Z,31.18
2018-09-19T12:40:27.237Z,31.27
2018-09-19T12:41:27.238Z,31.27
2018-09-19T12:42:27.244Z,31.40
2018-09-19T12:43:27.249Z,31.28
2018-09-19T12:44:27.255Z,31.28
2018-09-19T12:45:27.265Z,31.41
2018-09-19T12:46:27.269Z,31.38
2018-09-19T12:47:27.276Z,31.31
2018-09-19T12:48:27.282Z,31.34
2018-09-19T12:49:27.287Z,31.37
2018-09-19T12:50:27.286Z,31.23
2018-09-19T12:51:27.292Z,31.30
2018-09-19T12:52:27.296Z,31.50